Time;durP1;ratioP1;P1;durP2;ratioP2;P2;SDS_P1;SDS_P2;PMS_P1;PMS_P2;Temp;Humidity;BMP_temperature;BMP_pressure;BME280_temperature;BME280_humidity;BME280_pressure;Samples;Min_cycle;Max_cycle;Signal;HPM_P1;HPM_P2
2024/03/19 00:01:38;;;;;;;;;;;;;;;12.75;93.92;99993.78;5015748;28;19968;-77
2024/03/19 00:04:07;;;;;;;;;;;;;;;12.83;94.14;99998.25;5016595;28;20012;-77
2024/03/19 00:06:32;;;;;;;;;;;;;;;12.89;94.20;99998.38;5014571;28;19929;-77
2024/03/19 00:08:58;;;;;;;;;;;;;;;12.81;93.93;99999.94;5015866;28;19921;-77
2024/03/19 00:11:23;;;;;;;;;;;;;;;12.65;93.40;99996.16;5013244;28;19924;-77
2024/03/19 00:13:49;;;;;;;;;;;;;;;12.54;94.90;100001.13;5016410;28;19921;-77
2024/03/19 00:16:14;;;;;;;;;;;;;;;12.21;96.33;99996.94;4992762;28;19917;-77
2024/03/19 00:18:39;;;;;;;;;;;;;;;12.04;97.92;99997.44;5016414;28;20413;-77
2024/03/19 00:21:05;;;;;;;;;;;;;;;11.73;98.61;99994.09;5016086;28;20355;-77
2024/03/19 00:23:30;;;;;;;;;;;;;;;11.50;100.00;99988.31;5013662;28;19926;-76
2024/03/19 00:25:55;;;;;;;;;;;;;;;11.44;99.07;99986.47;5015940;28;19917;-77
2024/03/19 00:28:21;;;;;;;;;;;;;;;11.37;100.00;99975.94;5018308;28;19933;-77
2024/03/19 00:30:46;;;;;;;;;;;;;;;11.45;99.10;99977.88;5017647;28;20379;-77
2024/03/19 00:33:11;;;;;;;;;;;;;;;11.30;100.00;99982.66;5014134;28;20371;-77
2024/03/19 00:35:40;;;;;;;;;;;;;;;11.17;100.00;99982.31;5011926;28;20393;-77
2024/03/19 00:38:05;;;;;;;;;;;;;;;11.05;100.00;99971.66;5017699;28;19937;-77
2024/03/19 00:40:31;;;;;;;;;;;;;;;10.84;100.00;99987.44;5014895;28;19917;-77
2024/03/19 00:42:57;;;;;;;;;;;;;;;10.89;100.00;99985.88;5013643;28;19925;-76
2024/03/19 00:45:23;;;;;;;;;;;;;;;10.96;100.00;99980.03;5019915;28;20346;-77
2024/03/19 00:47:48;;;;;;;;;;;;;;;10.98;100.00;99977.50;5027952;28;19921;-78
2024/03/19 00:50:13;;;;;;;;;;;;;;;10.83;100.00;99984.00;5012387;28;19918;-76
2024/03/19 00:52:39;;;;;;;;;;;;;;;10.61;100.00;99986.81;5012869;28;19952;-77
2024/03/19 00:55:04;;;;;;;;;;;;;;;10.78;100.00;99985.56;5010841;28;19921;-77
2024/03/19 00:57:30;;;;;;;;;;;;;;;10.98;100.00;99986.13;5012805;28;19980;-77
2024/03/19 00:59:55;;;;;;;;;;;;;;;11.02;100.00;99976.75;5016052;28;19924;-77
2024/03/19 01:02:20;;;;;;;;;;;;;;;10.99;100.00;99976.66;5016820;28;19925;-76
2024/03/19 01:04:47;;;;;;;;;;;;;;;10.99;100.00;99987.88;5013566;28;19995;-77
2024/03/19 01:07:12;;;;;;;;;;;;;;;10.98;100.00;99977.50;5013453;28;20391;-77
2024/03/19 01:09:39;;;;;;;;;;;;;;;11.05;100.00;99979.41;5017973;28;19979;-77
2024/03/19 01:12:05;;;;;;;;;;;;;;;11.13;100.00;99971.88;5010961;28;20365;-77
2024/03/19 01:14:30;;;;;;;;;;;;;;;11.10;100.00;99972.69;5013631;28;20012;-77
2024/03/19 01:16:55;;;;;;;;;;;;;;;11.17;100.00;99974.56;5025387;28;19928;-77
2024/03/19 01:19:21;;;;;;;;;;;;;;;11.24;100.00;99967.88;5013737;28;19959;-77
2024/03/19 01:21:46;;;;;;;;;;;;;;;11.32;100.00;99960.31;5019929;28;19960;-77
2024/03/19 01:24:11;;;;;;;;;;;;;;;11.43;100.00;99964.03;5013951;28;19917;-77
2024/03/19 01:26:37;;;;;;;;;;;;;;;11.48;100.00;99954.69;5011740;28;19921;-77
2024/03/19 01:29:02;;;;;;;;;;;;;;;11.46;100.00;99956.38;5013968;28;19921;-77
2024/03/19 01:31:29;;;;;;;;;;;;;;;11.33;100.00;99959.47;5013960;28;19975;-77
2024/03/19 01:33:57;;;;;;;;;;;;;;;10.95;100.00;99964.50;5014223;28;19925;-77
2024/03/19 01:36:22;;;;;;;;;;;;;;;10.91;100.00;99966.13;5015247;28;19929;-77
2024/03/19 01:38:47;;;;;;;;;;;;;;;10.86;100.00;99977.19;5017865;28;20420;-77
2024/03/19 01:41:15;;;;;;;;;;;;;;;10.76;100.00;99970.88;5016501;28;19922;-77
2024/03/19 01:43:40;;;;;;;;;;;;;;;10.74;100.00;99968.25;5015836;28;19921;-77
2024/03/19 01:46:05;;;;;;;;;;;;;;;10.75;100.00;99967.41;5015076;28;19928;-77
2024/03/19 01:48:31;;;;;;;;;;;;;;;10.65;100.00;99970.56;5012565;28;19917;-77
2024/03/19 01:50:58;;;;;;;;;;;;;;;10.49;100.00;99964.06;5016261;28;19967;-77
2024/03/19 01:53:23;;;;;;;;;;;;;;;10.50;100.00;99965.84;5017210;28;19917;-77
2024/03/19 01:55:49;;;;;;;;;;;;;;;10.35;100.00;99955.91;5012032;28;20268;-77
2024/03/19 01:58:14;;;;;;;;;;;;;;;10.49;100.00;99962.38;5015710;28;19929;-77
2024/03/19 02:00:39;;;;;;;;;;;;;;;10.52;100.00;99954.72;5015153;28;20020;-77
2024/03/19 02:03:05;;;;;;;;;;;;;;;10.42;100.00;99962.16;5013629;28;19932;-77
2024/03/19 02:05:31;;;;;;;;;;;;;;;10.52;100.00;99967.63;5009642;28;20061;-76
2024/03/19 02:07:56;;;;;;;;;;;;;;;10.68;100.00;99971.53;5014402;28;19925;-78
2024/03/19 02:10:21;;;;;;;;;;;;;;;10.84;100.00;99961.63;5018640;28;19921;-77
2024/03/19 02:12:47;;;;;;;;;;;;;;;10.92;100.00;99962.72;5019444;28;19924;-77
2024/03/19 02:15:12;;;;;;;;;;;;;;;11.06;100.00;99964.81;5015197;28;19922;-76
2024/03/19 02:17:37;;;;;;;;;;;;;;;11.08;100.00;99971.75;5010920;28;19968;-77
2024/03/19 02:20:12;;;;;;;;;;;;;;;11.03;100.00;99981.09;5017455;28;19917;-77
2024/03/19 02:22:38;;;;;;;;;;;;;;;10.93;100.00;99986.81;5015983;28;19925;-76
2024/03/19 02:25:03;;;;;;;;;;;;;;;10.81;100.00;99985.66;5014927;28;19921;-77
2024/03/19 02:27:28;;;;;;;;;;;;;;;10.66;100.00;99985.22;5018545;28;20333;-77
2024/03/19 02:29:54;;;;;;;;;;;;;;;10.69;100.00;99980.13;5013829;28;19936;-77
2024/03/19 02:32:19;;;;;;;;;;;;;;;10.58;100.00;99979.84;5012693;28;19917;-77
2024/03/19 02:34:45;;;;;;;;;;;;;;;10.27;100.00;99978.00;5012730;28;19927;-77
2024/03/19 02:37:10;;;;;;;;;;;;;;;10.09;100.00;99974.03;5014947;28;19961;-77
2024/03/19 02:39:37;;;;;;;;;;;;;;;10.19;100.00;99981.25;5014535;28;19968;-77
2024/03/19 02:42:02;;;;;;;;;;;;;;;9.93;100.00;99980.44;5016657;28;19921;-77
2024/03/19 02:44:28;;;;;;;;;;;;;;;9.82;100.00;99976.63;5014929;28;20462;-77
2024/03/19 02:46:53;;;;;;;;;;;;;;;9.70;100.00;99979.69;5019847;28;19928;-76
2024/03/19 02:49:18;;;;;;;;;;;;;;;9.66;100.00;99975.28;5017263;28;19925;-76
2024/03/19 02:51:44;;;;;;;;;;;;;;;9.67;100.00;99977.91;5016663;28;19917;-77
2024/03/19 02:54:09;;;;;;;;;;;;;;;9.80;100.00;99968.84;5018714;28;19924;-76
2024/03/19 02:56:35;;;;;;;;;;;;;;;9.88;100.00;99976.81;5015398;28;20361;-77
2024/03/19 02:59:00;;;;;;;;;;;;;;;9.67;100.00;99984.75;5019058;28;20280;-76
2024/03/19 03:01:26;;;;;;;;;;;;;;;9.46;100.00;99990.94;5014444;28;19948;-76
2024/03/19 03:03:51;;;;;;;;;;;;;;;9.27;100.00;99991.13;5015739;28;19917;-76
2024/03/19 03:06:17;;;;;;;;;;;;;;;9.37;100.00;99988.06;5017436;28;19924;-77
2024/03/19 03:08:42;;;;;;;;;;;;;;;9.58;100.00;99987.91;5018311;28;20008;-77
2024/03/19 03:11:08;;;;;;;;;;;;;;;9.73;100.00;100002.13;5016149;28;20000;-77
2024/03/19 03:13:33;;;;;;;;;;;;;;;9.74;100.00;99997.00;5019407;28;19921;-76
2024/03/19 03:15:58;;;;;;;;;;;;;;;9.64;100.00;99992.38;5019264;28;20453;-76
2024/03/19 03:18:24;;;;;;;;;;;;;;;9.62;100.00;99997.50;5015438;28;19925;-77
2024/03/19 03:20:49;;;;;;;;;;;;;;;9.70;100.00;99992.59;5023931;28;19934;-76
2024/03/19 03:23:15;;;;;;;;;;;;;;;9.76;100.00;99994.47;5019507;28;19924;-77
2024/03/19 03:25:40;;;;;;;;;;;;;;;9.75;100.00;99992.75;5022263;28;20004;-77
2024/03/19 03:28:06;;;;;;;;;;;;;;;9.81;100.00;99995.53;5011643;28;20593;-77
2024/03/19 03:30:31;;;;;;;;;;;;;;;9.88;100.00;99990.59;5018474;28;19984;-77
2024/03/19 03:32:57;;;;;;;;;;;;;;;9.94;100.00;99999.38;5010989;28;20387;-77
2024/03/19 03:35:22;;;;;;;;;;;;;;;9.92;100.00;100004.47;5013799;28;20359;-77
2024/03/19 03:37:47;;;;;;;;;;;;;;;9.96;100.00;99995.16;5016188;28;19973;-76
2024/03/19 03:40:19;;;;;;;;;;;;;;;9.72;100.00;99990.94;5010058;28;19928;-77
2024/03/19 03:42:44;;;;;;;;;;;;;;;9.64;100.00;99988.09;5014806;28;19984;-76
2024/03/19 03:45:11;;;;;;;;;;;;;;;9.71;100.00;99989.19;5015659;28;19938;-77
2024/03/19 03:47:37;;;;;;;;;;;;;;;9.73;100.00;99991.81;5016332;28;19922;-76
2024/03/19 03:50:03;;;;;;;;;;;;;;;9.56;100.00;99987.00;5019443;28;19976;-76
2024/03/19 03:52:32;;;;;;;;;;;;;;;9.27;100.00;99986.00;5014951;28;19963;-76
2024/03/19 03:54:58;;;;;;;;;;;;;;;9.03;100.00;99981.75;5017985;28;20385;-76
2024/03/19 03:57:24;;;;;;;;;;;;;;;8.85;100.00;99992.28;5013941;28;19933;-76
2024/03/19 03:59:51;;;;;;;;;;;;;;;8.84;100.00;99998.25;4993699;28;19917;-76
2024/03/19 04:02:16;;;;;;;;;;;;;;;8.93;100.00;99989.97;5010653;28;19944;-76
2024/03/19 04:04:41;;;;;;;;;;;;;;;8.94;100.00;99989.16;5014891;28;20395;-76
2024/03/19 04:07:07;;;;;;;;;;;;;;;8.94;100.00;99987.44;5019493;28;20315;-76
2024/03/19 04:09:32;;;;;;;;;;;;;;;8.99;100.00;99993.63;5013754;28;20505;-77
2024/03/19 04:11:58;;;;;;;;;;;;;;;9.16;100.00;99983.94;5015573;28;19917;-77
2024/03/19 04:14:23;;;;;;;;;;;;;;;9.33;100.00;99983.63;5016757;28;19924;-77
2024/03/19 04:16:48;;;;;;;;;;;;;;;9.47;100.00;99982.41;5020104;28;20012;-77
2024/03/19 04:19:14;;;;;;;;;;;;;;;9.43;100.00;99987.41;5014761;28;20041;-77
2024/03/19 04:21:39;;;;;;;;;;;;;;;9.28;100.00;100005.78;5019052;28;20004;-77
2024/03/19 04:24:04;;;;;;;;;;;;;;;9.27;100.00;99998.88;5019046;28;20036;-78
2024/03/19 04:26:30;;;;;;;;;;;;;;;9.31;100.00;99999.03;5011096;28;19925;-77
2024/03/19 04:28:55;;;;;;;;;;;;;;;9.41;100.00;99992.50;5021436;28;20368;-77
2024/03/19 04:31:21;;;;;;;;;;;;;;;9.23;100.00;99996.22;5012121;28;19933;-77
2024/03/19 04:33:48;;;;;;;;;;;;;;;9.16;100.00;99993.34;5012474;28;19922;-77
2024/03/19 04:36:13;;;;;;;;;;;;;;;9.18;100.00;99990.03;5017295;28;19964;-77
2024/03/19 04:38:39;;;;;;;;;;;;;;;9.19;100.00;99988.31;5017539;28;19964;-77
2024/03/19 04:41:04;;;;;;;;;;;;;;;9.15;100.00;99989.91;5014075;28;19997;-77
2024/03/19 04:43:30;;;;;;;;;;;;;;;9.27;100.00;99991.13;5014747;28;19922;-77
2024/03/19 04:45:55;;;;;;;;;;;;;;;9.37;100.00;99995.78;5007663;28;19936;-77
2024/03/19 04:48:21;;;;;;;;;;;;;;;9.27;100.00;99991.13;5014249;28;19921;-77
2024/03/19 04:50:46;;;;;;;;;;;;;;;9.26;100.00;99994.53;5019089;28;19927;-76
2024/03/19 04:53:11;;;;;;;;;;;;;;;9.20;100.00;99996.09;5012190;28;19922;-77
2024/03/19 04:55:37;;;;;;;;;;;;;;;9.19;100.00;100004.63;5007119;28;19928;-76
2024/03/19 04:58:05;;;;;;;;;;;;;;;9.13;100.00;100013.84;5007801;28;19925;-77
2024/03/19 05:00:30;;;;;;;;;;;;;;;9.10;100.00;100006.00;5001604;28;19918;-79
2024/03/19 05:02:57;;;;;;;;;;;;;;;9.22;100.00;100012.47;5012368;28;19991;-76
2024/03/19 05:05:22;;;;;;;;;;;;;;;9.33;100.00;100012.84;5025772;28;19921;-75
2024/03/19 05:07:48;;;;;;;;;;;;;;;9.37;100.00;100013.81;5015653;28;19944;-75
2024/03/19 05:10:13;;;;;;;;;;;;;;;9.21;100.00;100018.44;5012811;28;19922;-75
2024/03/19 05:12:40;;;;;;;;;;;;;;;9.06;100.00;100015.34;5012336;28;20375;-75
2024/03/19 05:15:06;;;;;;;;;;;;;;;9.00;100.00;100022.84;4988092;28;19922;-77
2024/03/19 05:17:33;;;;;;;;;;;;;;;8.87;100.00;100029.22;4989574;28;20060;-75
2024/03/19 05:19:58;;;;;;;;;;;;;;;8.76;100.00;100026.28;4988135;28;20307;-75
2024/03/19 05:22:24;;;;;;;;;;;;;;;8.81;100.00;100032.47;4972026;28;19921;-75
2024/03/19 05:24:50;;;;;;;;;;;;;;;8.85;100.00;100034.31;4987811;28;19929;-75
2024/03/19 05:27:16;;;;;;;;;;;;;;;8.85;100.00;100039.47;4985766;28;20343;-75
2024/03/19 05:29:41;;;;;;;;;;;;;;;8.89;100.00;100045.63;4988373;28;19918;-75
2024/03/19 05:32:06;;;;;;;;;;;;;;;8.74;100.00;100056.22;4989269;28;19917;-75
2024/03/19 05:34:32;;;;;;;;;;;;;;;8.71;100.00;100058.66;4988430;28;19926;-75
2024/03/19 05:36:58;;;;;;;;;;;;;;;8.69;100.00;100058.59;4988762;28;20019;-75
2024/03/19 05:39:24;;;;;;;;;;;;;;;8.70;100.00;100062.94;4988749;28;20071;-75
2024/03/19 05:41:50;;;;;;;;;;;;;;;8.76;100.00;100062.31;4988561;28;19918;-76
2024/03/19 05:44:15;;;;;;;;;;;;;;;8.89;100.00;100058.47;4989261;28;19928;-75
2024/03/19 05:46:41;;;;;;;;;;;;;;;9.03;100.00;100043.53;5012058;28;19917;-75
2024/03/19 05:49:08;;;;;;;;;;;;;;;9.19;100.00;100048.41;5019731;28;19922;-74
2024/03/19 05:51:33;;;;;;;;;;;;;;;9.35;100.00;100049.84;5019052;28;19924;-75
2024/03/19 05:53:59;;;;;;;;;;;;;;;9.42;100.00;100053.53;5020478;28;19929;-75
2024/03/19 05:56:24;;;;;;;;;;;;;;;9.43;100.00;100060.41;5021014;28;19921;-75
2024/03/19 05:58:49;;;;;;;;;;;;;;;9.35;100.00;100062.72;5026407;28;19925;-74
2024/03/19 06:01:14;;;;;;;;;;;;;;;9.11;100.00;100057.56;5021858;28;19917;-74
2024/03/19 06:03:40;;;;;;;;;;;;;;;9.05;100.00;100053.06;5016594;28;19936;-74
2024/03/19 06:06:11;;;;;;;;;;;;;;;9.07;100.00;100050.53;5020331;28;19913;-74
2024/03/19 06:08:37;;;;;;;;;;;;;;;9.15;100.00;100056.84;5021919;28;19960;-74
2024/03/19 06:11:03;;;;;;;;;;;;;;;9.17;100.00;100051.75;5019602;28;19913;-74
2024/03/19 06:13:31;;;;;;;;;;;;;;;9.16;100.00;100060.28;5019796;28;19979;-74
2024/03/19 06:15:57;;;;;;;;;;;;;;;9.07;100.00;100061.75;5020723;28;19926;-74
2024/03/19 06:18:22;;;;;;;;;;;;;;;9.00;100.00;100066.63;5021611;28;19921;-74
2024/03/19 06:20:48;;;;;;;;;;;;;;;8.99;100.00;100070.00;5023516;28;19922;-74
2024/03/19 06:23:13;;;;;;;;;;;;;;;8.97;100.00;100069.97;5024013;28;19947;-74
2024/03/19 06:25:39;;;;;;;;;;;;;;;8.96;100.00;100073.34;5025795;28;19922;-74
2024/03/19 06:28:05;;;;;;;;;;;;;;;9.00;100.00;100069.19;5023104;28;19918;-74
2024/03/19 06:30:31;;;;;;;;;;;;;;;8.97;100.00;100072.53;4995521;28;20138;-74
2024/03/19 06:32:56;;;;;;;;;;;;;;;9.06;100.00;100077.13;5023631;28;20410;-74
2024/03/19 06:35:21;;;;;;;;;;;;;;;9.08;100.00;100080.63;5022066;28;20419;-74
2024/03/19 06:37:47;;;;;;;;;;;;;;;9.16;100.00;100076.66;5022143;28;19937;-74
2024/03/19 06:40:13;;;;;;;;;;;;;;;9.26;100.00;100076.97;5021924;28;19925;-75
2024/03/19 06:42:39;;;;;;;;;;;;;;;9.33;100.00;100078.94;5022724;28;20020;-74
2024/03/19 06:45:08;;;;;;;;;;;;;;;9.41;100.00;100081.78;5022216;28;20340;-74
2024/03/19 06:47:34;;;;;;;;;;;;;;;9.50;100.00;100076.97;5020883;28;19924;-74
2024/03/19 06:49:59;;;;;;;;;;;;;;;9.60;100.00;100073.88;4992850;28;20348;-74
2024/03/19 06:52:25;;;;;;;;;;;;;;;9.74;100.00;100079.50;5015428;28;19991;-74
2024/03/19 06:54:52;;;;;;;;;;;;;;;9.83;100.00;100072.09;5023585;28;19937;-74
2024/03/19 06:57:17;;;;;;;;;;;;;;;9.94;100.00;100080.16;5021723;28;19925;-75
2024/03/19 06:59:43;;;;;;;;;;;;;;;10.02;100.00;100083.88;5023992;28;19933;-74
2024/03/19 07:02:13;;;;;;;;;;;;;;;10.11;100.00;100087.59;5021018;28;19927;-74
2024/03/19 07:04:38;;;;;;;;;;;;;;;10.17;100.00;100088.66;5021505;28;19937;-75
2024/03/19 07:07:03;;;;;;;;;;;;;;;10.22;100.00;100091.41;5021810;28;19925;-75
2024/03/19 07:09:30;;;;;;;;;;;;;;;10.33;100.00;100095.19;5021766;28;19928;-74
2024/03/19 07:11:56;;;;;;;;;;;;;;;10.38;100.00;100110.88;5022973;28;20008;-73
2024/03/19 07:14:22;;;;;;;;;;;;;;;10.39;100.00;100109.16;5023851;28;20011;-73
2024/03/19 07:16:49;;;;;;;;;;;;;;;10.42;100.00;100112.72;5021244;28;19921;-73
2024/03/19 07:19:15;;;;;;;;;;;;;;;10.52;100.00;100108.72;4993579;28;20450;-73
2024/03/19 07:21:40;;;;;;;;;;;;;;;10.58;100.00;100105.44;5022074;28;20004;-73
2024/03/19 07:24:05;;;;;;;;;;;;;;;10.56;100.00;100110.56;5024877;28;19952;-74
2024/03/19 07:26:31;;;;;;;;;;;;;;;10.57;100.00;100108.88;5019636;28;19924;-73
2024/03/19 07:28:56;;;;;;;;;;;;;;;10.55;100.00;100097.63;5023583;28;20287;-73
2024/03/19 07:31:22;;;;;;;;;;;;;;;10.61;100.00;100100.38;5010269;28;20346;-73
2024/03/19 07:33:47;;;;;;;;;;;;;;;10.72;100.00;100111.03;4949230;28;1980056;-74
2024/03/19 07:36:13;;;;;;;;;;;;;;;10.77;100.00;100112.91;5016126;28;20426;-73
2024/03/19 07:38:40;;;;;;;;;;;;;;;10.62;100.00;100115.91;5021907;28;19928;-75
2024/03/19 07:41:06;;;;;;;;;;;;;;;10.63;100.00;100121.94;5011594;28;19936;-75
2024/03/19 07:43:31;;;;;;;;;;;;;;;10.69;100.00;100124.72;5017955;28;19922;-75
2024/03/19 07:45:56;;;;;;;;;;;;;;;10.74;100.00;100133.50;5021722;28;19929;-75
2024/03/19 07:48:22;;;;;;;;;;;;;;;10.73;100.00;100136.00;5024475;28;19921;-75
2024/03/19 07:50:47;;;;;;;;;;;;;;;10.71;100.00;100129.94;5019647;28;20334;-75
2024/03/19 07:53:14;;;;;;;;;;;;;;;10.76;100.00;100130.97;5026284;28;19921;-75
2024/03/19 07:55:39;;;;;;;;;;;;;;;10.76;100.00;100126.66;5021979;28;19921;-75
2024/03/19 07:58:05;;;;;;;;;;;;;;;10.86;100.00;100132.97;5022345;28;20446;-75
2024/03/19 08:00:31;;;;;;;;;;;;;;;10.94;100.00;100135.78;5021834;28;19913;-75
2024/03/19 08:02:56;;;;;;;;;;;;;;;11.02;100.00;100139.50;5016689;28;20040;-75
2024/03/19 08:05:22;;;;;;;;;;;;;;;11.11;100.00;100138.88;5022272;28;19921;-75
2024/03/19 08:07:48;;;;;;;;;;;;;;;11.21;100.00;100140.91;5022982;28;19967;-75
2024/03/19 08:10:13;;;;;;;;;;;;;;;11.28;100.00;100137.66;5022733;28;19924;-75
2024/03/19 08:12:38;;;;;;;;;;;;;;;11.28;100.00;100136.81;5023783;28;20004;-75
2024/03/19 08:15:04;;;;;;;;;;;;;;;11.31;100.00;100140.34;5023851;28;19921;-74
2024/03/19 08:17:30;;;;;;;;;;;;;;;11.31;100.00;100130.00;5023645;28;20355;-75
2024/03/19 08:19:57;;;;;;;;;;;;;;;11.35;100.00;100132.66;5017022;28;19928;-75
2024/03/19 08:22:23;;;;;;;;;;;;;;;11.32;100.00;100139.50;5021691;28;19924;-75
2024/03/19 08:24:49;;;;;;;;;;;;;;;11.28;100.00;100136.81;5021527;28;19921;-75
2024/03/19 08:27:15;;;;;;;;;;;;;;;11.34;100.00;100139.56;5021411;28;19913;-75
2024/03/19 08:29:41;;;;;;;;;;;;;;;11.40;100.00;100141.44;5012574;28;19928;-75
2024/03/19 08:32:06;;;;;;;;;;;;;;;11.38;100.00;100143.13;5019974;28;20295;-75
2024/03/19 08:34:31;;;;;;;;;;;;;;;11.35;100.00;100140.44;5012313;28;19921;-75
2024/03/19 08:36:57;;;;;;;;;;;;;;;11.31;100.00;100148.09;5021698;28;19952;-75
2024/03/19 08:39:24;;;;;;;;;;;;;;;11.40;100.00;100144.00;5023288;28;19925;-76
2024/03/19 08:41:50;;;;;;;;;;;;;;;11.46;100.00;100144.19;5023760;28;19924;-75
2024/03/19 08:44:16;;;;;;;;;;;;;;;11.55;100.00;100147.03;5023177;28;20016;-76
2024/03/19 08:46:42;;;;;;;;;;;;;;;11.54;100.00;100139.22;5017796;28;20007;-76
2024/03/19 08:49:10;;;;;;;;;;;;;;;11.51;100.00;100146.91;5021089;28;20024;-76
2024/03/19 08:51:35;;;;;;;;;;;;;;;11.58;100.00;100141.94;5019008;28;19917;-77
2024/03/19 08:54:00;;;;;;;;;;;;;;;11.65;100.00;100142.97;5023021;28;20390;-77
2024/03/19 08:56:26;;;;;;;;;;;;;;;11.68;100.00;100142.22;5022784;28;19968;-76
2024/03/19 08:58:51;;;;;;;;;;;;;;;11.64;100.00;100136.06;5020599;28;19975;-77
2024/03/19 09:01:16;;;;;;;;;;;;;;;11.64;100.00;100138.66;5020950;28;19987;-76
2024/03/19 09:03:42;;;;;;;;;;;;;;;11.61;100.00;100130.81;5020718;28;19925;-77
2024/03/19 09:06:08;;;;;;;;;;;;;;;11.59;100.00;100129.88;5020652;28;19972;-77
2024/03/19 09:08:35;;;;;;;;;;;;;;;11.56;100.00;100127.22;5022700;28;19967;-77
2024/03/19 09:11:00;;;;;;;;;;;;;;;11.58;100.00;100130.75;5022523;28;19995;-76
2024/03/19 09:13:25;;;;;;;;;;;;;;;11.62;100.00;100124.81;5021914;28;19921;-76
2024/03/19 09:15:51;;;;;;;;;;;;;;;11.66;100.00;100129.22;5021713;28;20395;-77
2024/03/19 09:18:17;;;;;;;;;;;;;;;11.74;100.00;100127.72;4976230;28;19926;-76
2024/03/19 09:20:42;;;;;;;;;;;;;;;11.81;100.00;100133.91;5022934;28;19916;-76
2024/03/19 09:23:09;;;;;;;;;;;;;;;11.77;100.00;100129.50;5022423;28;19928;-76
2024/03/19 09:25:34;;;;;;;;;;;;;;;11.80;100.00;100134.75;5020318;28;19924;-75
2024/03/19 09:28:00;;;;;;;;;;;;;;;11.82;100.00;100138.25;5022207;28;19918;-76
2024/03/19 09:30:27;;;;;;;;;;;;;;;11.80;100.00;100137.34;5009126;28;19928;-76
2024/03/19 09:32:55;;;;;;;;;;;;;;;11.84;100.00;100128.84;5022179;28;19939;-76
2024/03/19 09:35:20;;;;;;;;;;;;;;;11.89;100.00;100132.44;5021573;28;19968;-75
2024/03/19 09:37:46;;;;;;;;;;;;;;;11.83;100.00;100127.09;5018101;28;19964;-75
2024/03/19 09:40:11;;;;;;;;;;;;;;;11.71;100.00;100137.97;5010583;28;20345;-75
2024/03/19 09:42:37;;;;;;;;;;;;;;;11.54;100.00;100128.88;5020658;28;19932;-75
2024/03/19 09:45:09;;;;;;;;;;;;;;;11.45;100.00;100134.66;5004896;28;19932;-75
2024/03/19 09:47:36;;;;;;;;;;;;;;;11.28;100.00;100124.75;5020182;28;20008;-75
2024/03/19 09:50:02;;;;;;;;;;;;;;;11.23;100.00;100131.50;5021557;28;19917;-75
2024/03/19 09:52:28;;;;;;;;;;;;;;;11.07;100.00;100129.31;5013536;28;19963;-76
2024/03/19 09:54:55;;;;;;;;;;;;;;;11.09;100.00;100125.94;5021358;28;19923;-75
2024/03/19 09:57:21;;;;;;;;;;;;;;;11.08;100.00;100128.44;5011219;28;19921;-76
2024/03/19 09:59:47;;;;;;;;;;;;;;;11.05;100.00;100133.53;5021086;28;20387;-75
2024/03/19 10:02:19;;;;;;;;;;;;;;;11.08;100.00;100128.44;5021388;28;19918;-75
2024/03/19 10:04:47;;;;;;;;;;;;;;;11.14;100.00;100126.03;5022259;28;19925;-75
2024/03/19 10:07:16;;;;;;;;;;;;;;;11.17;100.00;100128.72;5021984;28;19944;-75
2024/03/19 10:09:45;;;;;;;;;;;;;;;11.34;100.00;100126.63;5008045;28;19928;-75
2024/03/19 10:12:12;;;;;;;;;;;;;;;11.53;100.00;100132.31;5020079;28;19929;-75
2024/03/19 10:14:38;;;;;;;;;;;;;;;11.60;100.00;100123.88;5012244;28;19921;-76
2024/03/19 10:17:04;;;;;;;;;;;;;;;11.66;100.00;100124.03;5015378;28;20399;-75
2024/03/19 10:19:29;;;;;;;;;;;;;;;11.78;100.00;100121.78;5021753;28;19925;-75
2024/03/19 10:21:54;;;;;;;;;;;;;;;11.90;100.00;100120.34;5020485;28;20426;-75
2024/03/19 10:24:20;;;;;;;;;;;;;;;11.96;100.00;100121.44;5019874;28;19921;-76
2024/03/19 10:26:46;;;;;;;;;;;;;;;12.05;100.00;100123.38;5019296;28;20015;-76
2024/03/19 10:29:13;;;;;;;;;;;;;;;12.08;100.00;100123.44;5019598;28;19944;-76
2024/03/19 10:31:38;;;;;;;;;;;;;;;12.11;100.00;100123.53;4994667;28;19921;-76
2024/03/19 10:34:05;;;;;;;;;;;;;;;12.16;100.00;100125.34;5017657;28;20323;-76
2024/03/19 10:36:33;;;;;;;;;;;;;;;12.14;100.00;100133.09;5019854;28;19922;-76
2024/03/19 10:38:59;;;;;;;;;;;;;;;12.16;100.00;100135.72;5021445;28;19945;-76
2024/03/19 10:41:25;;;;;;;;;;;;;;;12.21;100.00;100135.00;5021749;28;19960;-75
2024/03/19 10:43:52;;;;;;;;;;;;;;;12.15;100.00;100132.25;5011445;28;19987;-74
2024/03/19 10:46:19;;;;;;;;;;;;;;;12.02;100.00;100135.38;5012993;28;19971;-75
2024/03/19 10:48:45;;;;;;;;;;;;;;;11.97;100.00;100137.81;5020319;28;19922;-75
2024/03/19 10:51:11;;;;;;;;;;;;;;;11.98;100.00;100127.50;5012155;28;19917;-75
2024/03/19 10:53:37;;;;;;;;;;;;;;;12.01;100.00;100123.25;5017108;28;19975;-75
2024/03/19 10:56:04;;;;;;;;;;;;;;;12.10;100.00;100131.25;5021533;28;19921;-74
2024/03/19 10:58:35;;;;;;;;;;;;;;;12.13;100.00;100115.81;5019516;28;19948;-75
2024/03/19 11:01:02;;;;;;;;;;;;;;;12.07;100.00;100120.81;5013932;28;20383;-75
2024/03/19 11:03:28;;;;;;;;;;;;;;;12.13;100.00;100120.97;4995072;28;19921;-74
2024/03/19 11:05:58;;;;;;;;;;;;;;;12.20;100.00;100117.72;5025008;28;19928;-74
2024/03/19 11:08:25;;;;;;;;;;;;;;;12.14;100.00;100117.56;5024757;28;19931;-74
2024/03/19 11:10:50;;;;;;;;;;;;;;;12.09;100.00;100117.44;5024086;28;19921;-74
2024/03/19 11:13:21;;;;;;;;;;;;;;;12.08;100.00;100115.69;5012675;28;19940;-74
2024/03/19 11:16:11;;;;;;;;;;;;;;;12.07;100.00;100116.50;5010571;28;20430;-74
2024/03/19 11:18:42;;;;;;;;;;;;;;;12.03;100.00;100114.69;5010432;28;19917;-74
2024/03/19 11:21:14;;;;;;;;;;;;;;;12.02;100.00;100120.69;5010629;28;19925;-75
2024/03/19 11:23:42;;;;;;;;;;;;;;;12.07;100.00;100115.66;5011101;28;19921;-76
2024/03/19 11:26:08;;;;;;;;;;;;;;;12.10;100.00;100110.53;5010813;28;19921;-75
2024/03/19 11:28:34;;;;;;;;;;;;;;;12.09;100.00;100112.25;5010444;28;19933;-75
2024/03/19 11:31:02;;;;;;;;;;;;;;;12.14;100.00;100110.66;5010322;28;19918;-75
2024/03/19 11:33:47;;;;;;;;;;;;;;;12.28;100.00;100104.94;4966720;28;20311;-75
2024/03/19 11:36:13;;;;;;;;;;;;;;;12.39;100.00;100100.91;4971287;28;20012;-75
2024/03/19 11:38:38;;;;;;;;;;;;;;;12.29;100.00;100106.72;4971309;28;19932;-74
2024/03/19 11:41:04;;;;;;;;;;;;;;;12.37;100.00;100110.34;4971300;28;20380;-74
2024/03/19 11:43:30;;;;;;;;;;;;;;;12.46;100.00;100107.09;4971082;28;19926;-74
2024/03/19 11:45:55;;;;;;;;;;;;;;;12.57;100.00;100102.16;4971068;28;19918;-74
2024/03/19 11:48:22;;;;;;;;;;;;;;;12.59;100.00;100105.69;4991292;28;20012;-73
2024/03/19 11:50:53;;;;;;;;;;;;;;;12.61;99.47;100102.28;4990669;28;19971;-74
2024/03/19 11:53:21;;;;;;;;;;;;;;;12.56;100.00;100100.41;4990496;28;19922;-74
2024/03/19 11:55:49;;;;;;;;;;;;;;;12.57;100.00;100102.16;4990412;28;19965;-74
2024/03/19 11:58:15;;;;;;;;;;;;;;;12.59;100.00;100098.78;4990138;28;19932;-74
2024/03/19 12:00:41;;;;;;;;;;;;;;;12.57;93.03;100105.66;4990464;28;19925;-75
2024/03/19 12:03:06;;;;;;;;;;;;;;;12.54;82.84;100110.75;4975115;28;20301;-74
2024/03/19 12:05:33;;;;;;;;;;;;;;;12.48;80.03;100120.09;5015982;28;20438;-74
2024/03/19 12:08:00;;;;;;;;;;;;;;;12.41;79.21;100124.22;5021943;28;19963;-74
2024/03/19 12:10:26;;;;;;;;;;;;;;;12.36;76.96;100118.97;5011879;28;20711;-74
2024/03/19 12:12:52;;;;;;;;;;;;;;;12.37;80.55;100132.78;5024233;28;19924;-73
2024/03/19 12:15:19;;;;;;;;;;;;;;;12.30;79.63;100136.94;5023719;28;20441;-74
2024/03/19 12:17:46;;;;;;;;;;;;;;;12.29;76.09;100137.78;5013835;28;19928;-74
2024/03/19 12:20:12;;;;;;;;;;;;;;;12.23;76.03;100142.78;5021990;28;19922;-74
2024/03/19 12:22:38;;;;;;;;;;;;;;;12.22;80.20;100130.69;5023485;28;20277;-75
2024/03/19 12:25:04;;;;;;;;;;;;;;;12.23;82.97;100128.13;5023591;28;19923;-74
2024/03/19 12:27:29;;;;;;;;;;;;;;;12.19;85.21;100133.22;5023489;28;20123;-74
2024/03/19 12:29:55;;;;;;;;;;;;;;;12.11;88.69;100130.41;5021928;28;20011;-74